Time,TemperatureF,DewpointF,PressureIn,WindDirection,WindDirectionDegrees,WindSpeedMPH,WindSpeedGustMPH,Humidity,HourlyPrecipIn,Conditions,Clouds,dailyrainin,SoftwareType,DateUTC
2013-02-20 00:13:00,25.2,17.1,29.63,West,270,16.6,-999.0,71,-99.99,,,0.00,Acu-Link.com,2013-02-20 05:13:00,
2013-02-20 00:29:00,25.0,16.9,29.62,SW,225,10.4,-999.0,71,-99.99,,,0.00,Acu-Link.com,2013-02-20 05:29:00,
2013-02-20 00:44:00,24.8,16.8,29.62,WSW,247,7.8,-999.0,71,-99.99,,,0.00,Acu-Link.com,2013-02-20 05:44:00,
2013-02-20 00:59:00,24.6,16.6,29.63,SW,225,11.4,-999.0,71,-99.99,,,0.00,Acu-Link.com,2013-02-20 05:59:00,
2013-02-20 01:14:00,24.1,16.7,29.64,SW,225,9.4,-999.0,73,-99.99,,,0.00,Acu-Link.com,2013-02-20 06:14:00,
2013-02-20 01:29:00,23.7,17.0,29.64,SW,225,11.4,-999.0,75,-99.99,,,0.00,Acu-Link.com,2013-02-20 06:29:00,
2013-02-20 01:44:00,23.7,16.6,29.64,WSW,247,12.5,-999.0,74,-99.99,,,0.00,Acu-Link.com,2013-02-20 06:44:00,
2013-02-20 01:59:00,23.7,16.3,29.66,SW,225,11.9,-999.0,73,-99.99,,,0.00,Acu-Link.com,2013-02-20 06:59:00,
2013-02-20 02:14:00,23.7,16.0,29.66,SW,225,11.9,-999.0,72,-99.99,,,0.00,Acu-Link.com,2013-02-20 07:14:00,
2013-02-20 02:29:00,23.5,16.1,29.66,WSW,247,14.0,-999.0,73,-99.99,,,0.00,Acu-Link.com,2013-02-20 07:29:00,
2013-02-20 02:45:00,23.4,15.7,29.66,SSW,202,16.6,-999.0,72,-99.99,,,0.00,Acu-Link.com,2013-02-20 07:45:00,
2013-02-20 03:00:00,23.2,15.5,29.67,West,270,13.0,-999.0,72,-99.99,,,0.00,Acu-Link.com,2013-02-20 08:00:00,
2013-02-20 03:15:00,23.2,15.9,29.67,WSW,247,7.8,-999.0,73,-99.99,,,0.00,Acu-Link.com,2013-02-20 08:15:00,
2013-02-20 03:30:00,23.2,15.9,29.67,SW,225,9.4,-999.0,73,-99.99,,,0.00,Acu-Link.com,2013-02-20 08:30:00,
2013-02-20 03:45:00,22.6,16.2,29.68,South,180,11.4,-999.0,76,-99.99,,,0.00,Acu-Link.com,2013-02-20 08:45:00,
2013-02-20 04:00:00,22.8,16.1,29.68,SW,225,12.5,-999.0,75,-99.99,,,0.00,Acu-Link.com,2013-02-20 09:00:00,
2013-02-20 04:18:00,23.0,16.0,29.68,SW,225,15.5,-999.0,74,-99.99,,,0.00,Acu-Link.com,2013-02-20 09:18:00,
2013-02-20 04:34:00,23.0,15.0,29.68,West,270,14.0,-999.0,71,-99.99,,,0.00,Acu-Link.com,2013-02-20 09:34:00,
2013-02-20 04:49:00,23.0,15.3,29.69,SW,225,13.0,-999.0,72,-99.99,,,0.00,Acu-Link.com,2013-02-20 09:49:00,
2013-02-20 05:04:00,22.6,15.9,29.69,SSW,202,13.0,-999.0,75,-99.99,,,0.00,Acu-Link.com,2013-02-20 10:04:00,
2013-02-20 05:19:00,22.3,15.0,29.69,WSW,247,11.9,-999.0,73,-99.99,,,0.00,Acu-Link.com,2013-02-20 10:19:00,
2013-02-20 05:34:00,22.5,15.2,29.70,WSW,247,11.9,-999.0,73,-99.99,,,0.00,Acu-Link.com,2013-02-20 10:34:00,
2013-02-20 05:49:00,24.1,17.7,29.70,West,270,21.2,-999.0,76,-99.99,,,0.00,Acu-Link.com,2013-02-20 10:49:00,
2013-02-20 06:04:00,24.1,17.0,29.70,WSW,247,20.2,-999.0,74,-99.99,,,0.00,Acu-Link.com,2013-02-20 11:04:00,
2013-02-20 06:20:00,23.4,15.4,29.71,SSW,202,9.9,-999.0,71,-99.99,,,0.00,Acu-Link.com,2013-02-20 11:20:00,
2013-02-20 06:35:00,23.0,16.0,29.72,WSW,247,15.0,-999.0,74,-99.99,,,0.00,Acu-Link.com,2013-02-20 11:35:00,
2013-02-20 06:50:00,23.0,16.3,29.72,SW,225,13.0,-999.0,75,-99.99,,,0.00,Acu-Link.com,2013-02-20 11:50:00,
2013-02-20 07:05:00,21.4,15.0,29.73,WSW,247,13.5,-999.0,76,-99.99,,,0.00,Acu-Link.com,2013-02-20 12:05:00,
2013-02-20 07:20:00,21.7,14.4,29.73,WSW,247,10.4,-999.0,73,-99.99,,,0.00,Acu-Link.com,2013-02-20 12:20:00,
2013-02-20 07:35:00,21.2,16.0,29.74,WSW,247,10.9,-999.0,80,-99.99,,,0.00,Acu-Link.com,2013-02-20 12:35:00,
2013-02-20 07:50:00,21.7,16.8,29.74,SW,225,10.9,-999.0,81,-99.99,,,0.00,Acu-Link.com,2013-02-20 12:50:00,
2013-02-20 08:05:00,22.3,17.1,29.75,WSW,247,20.2,-999.0,80,-99.99,,,0.00,Acu-Link.com,2013-02-20 13:05:00,
2013-02-20 08:20:00,21.4,15.6,29.75,WSW,247,15.0,-999.0,78,-99.99,,,0.00,Acu-Link.com,2013-02-20 13:20:00,
2013-02-20 08:36:00,21.0,14.6,29.76,SW,225,10.9,-999.0,76,-99.99,,,0.00,Acu-Link.com,2013-02-20 13:36:00,
2013-02-20 08:51:00,21.4,14.1,29.77,SW,225,13.0,-999.0,73,-99.99,,,0.00,Acu-Link.com,2013-02-20 13:51:00,
2013-02-20 09:06:00,21.6,14.6,29.76,SSW,202,17.6,-999.0,74,-99.99,,,0.00,Acu-Link.com,2013-02-20 14:06:00,
2013-02-20 09:21:00,22.6,15.6,29.76,SW,225,18.1,-999.0,74,-99.99,,,0.00,Acu-Link.com,2013-02-20 14:21:00,
2013-02-20 09:36:00,22.1,16.0,29.76,WSW,247,22.7,-999.0,77,-99.99,,,0.00,Acu-Link.com,2013-02-20 14:36:00,
2013-02-20 09:51:00,22.5,15.5,29.77,West,270,21.7,-999.0,74,-99.99,,,0.00,Acu-Link.com,2013-02-20 14:51:00,
2013-02-20 10:06:00,22.6,16.2,29.77,SW,225,16.6,-999.0,76,-99.99,,,0.00,Acu-Link.com,2013-02-20 15:06:00,
2013-02-20 10:21:00,22.8,17.0,29.77,WSW,247,15.5,-999.0,78,-99.99,,,0.00,Acu-Link.com,2013-02-20 15:21:00,
2013-02-20 10:36:00,22.8,16.4,29.78,SW,225,13.5,-999.0,76,-99.99,,,0.00,Acu-Link.com,2013-02-20 15:36:00,
2013-02-20 10:52:00,21.6,14.3,29.79,SSW,202,9.9,-999.0,73,-99.99,,,0.00,Acu-Link.com,2013-02-20 15:52:00,
2013-02-20 11:07:00,21.7,15.0,29.79,West,270,13.5,-999.0,75,-99.99,,,0.00,Acu-Link.com,2013-02-20 16:07:00,
2013-02-20 11:22:00,21.7,15.0,29.79,SSW,202,13.5,-999.0,75,-99.99,,,0.00,Acu-Link.com,2013-02-20 16:22:00,
2013-02-20 11:38:00,23.9,16.2,29.79,West,270,15.0,-999.0,72,-99.99,,,0.00,Acu-Link.com,2013-02-20 16:38:00,
2013-02-20 11:53:00,23.7,15.7,29.80,SW,225,22.7,-999.0,71,-99.99,,,0.00,Acu-Link.com,2013-02-20 16:53:00,
2013-02-20 12:08:00,24.1,18.0,29.80,West,270,20.2,-999.0,77,-99.99,,,0.00,Acu-Link.com,2013-02-20 17:08:00,
2013-02-20 12:23:00,24.8,18.3,29.80,West,270,22.7,-999.0,76,-99.99,,,0.00,Acu-Link.com,2013-02-20 17:23:00,
2013-02-20 12:38:00,25.2,17.5,29.81,WNW,292,14.0,-999.0,72,-99.99,,,0.00,Acu-Link.com,2013-02-20 17:38:00,
2013-02-20 12:53:00,24.8,18.0,29.81,SW,225,17.1,-999.0,75,-99.99,,,0.00,Acu-Link.com,2013-02-20 17:53:00,
2013-02-20 13:09:00,24.8,17.4,29.81,WSW,247,13.5,-999.0,73,-99.99,,,0.00,Acu-Link.com,2013-02-20 18:09:00,
2013-02-20 13:24:00,25.0,16.3,29.81,West,270,14.0,-999.0,69,-99.99,,,0.00,Acu-Link.com,2013-02-20 18:24:00,
2013-02-20 13:39:00,25.2,16.5,29.82,NW,315,20.7,-999.0,69,-99.99,,,0.00,Acu-Link.com,2013-02-20 18:39:00,
2013-02-20 13:54:00,24.8,17.1,29.83,West,270,16.1,-999.0,72,-99.99,,,0.00,Acu-Link.com,2013-02-20 18:54:00,
2013-02-20 14:09:00,23.4,16.4,29.83,SW,225,17.6,-999.0,74,-99.99,,,0.00,Acu-Link.com,2013-02-20 19:09:00,
2013-02-20 14:24:00,24.8,17.1,29.83,West,270,19.1,-999.0,72,-99.99,,,0.00,Acu-Link.com,2013-02-20 19:24:00,
2013-02-20 14:40:00,25.2,17.8,29.84,WSW,247,12.5,-999.0,73,-99.99,,,0.00,Acu-Link.com,2013-02-20 19:40:00,
2013-02-20 14:55:00,25.2,17.5,29.85,WSW,247,17.6,-999.0,72,-99.99,,,0.00,Acu-Link.com,2013-02-20 19:55:00,
2013-02-20 15:10:00,25.5,18.1,29.85,West,270,14.0,-999.0,73,-99.99,,,0.00,Acu-Link.com,2013-02-20 20:10:00,
2013-02-20 15:25:00,25.5,18.1,29.86,SW,225,19.1,-999.0,73,-99.99,,,0.00,Acu-Link.com,2013-02-20 20:25:00,
2013-02-20 15:40:00,25.3,17.9,29.87,NW,315,15.5,-999.0,73,-99.99,,,0.00,Acu-Link.com,2013-02-20 20:40:00,
2013-02-20 15:55:00,25.3,17.2,29.87,SW,225,16.6,-999.0,71,-99.99,,,0.00,Acu-Link.com,2013-02-20 20:55:00,
2013-02-20 16:10:00,25.5,18.1,29.88,West,270,16.1,-999.0,73,-99.99,,,0.00,Acu-Link.com,2013-02-20 21:10:00,
2013-02-20 16:26:00,25.5,18.4,29.88,SW,225,18.1,-999.0,74,-99.99,,,0.00,Acu-Link.com,2013-02-20 21:26:00,
2013-02-20 16:41:00,25.5,18.1,29.89,NW,315,18.1,-999.0,73,-99.99,,,0.00,Acu-Link.com,2013-02-20 21:41:00,
2013-02-20 16:56:00,25.3,17.9,29.90,West,270,14.0,-999.0,73,-99.99,,,0.00,Acu-Link.com,2013-02-20 21:56:00,
2013-02-20 17:11:00,24.8,17.4,29.90,West,270,13.5,-999.0,73,-99.99,,,0.00,Acu-Link.com,2013-02-20 22:11:00,
2013-02-20 17:26:00,24.6,17.5,29.91,WSW,247,19.1,-999.0,74,-99.99,,,0.00,Acu-Link.com,2013-02-20 22:26:00,
2013-02-20 17:56:00,24.8,17.4,29.92,West,270,16.1,-999.0,73,-99.99,,,0.00,Acu-Link.com,2013-02-20 22:56:00,
2013-02-20 18:12:00,24.8,17.1,29.94,WSW,247,14.5,-999.0,72,-99.99,,,0.00,Acu-Link.com,2013-02-20 23:12:00,
2013-02-20 18:27:00,24.6,16.9,29.93,WNW,292,17.6,-999.0,72,-99.99,,,0.00,Acu-Link.com,2013-02-20 23:27:00,
2013-02-20 18:42:00,24.4,17.0,29.94,West,270,15.5,-999.0,73,-99.99,,,0.00,Acu-Link.com,2013-02-20 23:42:00,
2013-02-20 18:57:00,24.1,16.4,29.95,West,270,13.5,-999.0,72,-99.99,,,0.00,Acu-Link.com,2013-02-20 23:57:00,
2013-02-20 19:12:00,24.1,17.0,29.95,WSW,247,22.7,-999.0,74,-99.99,,,0.00,Acu-Link.com,2013-02-21 00:12:00,
2013-02-20 19:27:00,24.1,17.0,29.95,West,270,18.6,-999.0,74,-99.99,,,0.00,Acu-Link.com,2013-02-21 00:27:00,
2013-02-20 19:43:00,24.1,17.3,29.94,West,270,19.1,-999.0,75,-99.99,,,0.00,Acu-Link.com,2013-02-21 00:43:00,
2013-02-20 19:58:00,24.1,17.0,29.97,NW,315,16.6,-999.0,74,-99.99,,,0.00,Acu-Link.com,2013-02-21 00:58:00,
2013-02-20 20:13:00,23.7,16.3,29.96,NW,315,20.2,-999.0,73,-99.99,,,0.00,Acu-Link.com,2013-02-21 01:13:00,
2013-02-20 20:28:00,23.9,16.5,29.97,SW,225,17.6,-999.0,73,-99.99,,,0.00,Acu-Link.com,2013-02-21 01:28:00,
2013-02-20 20:43:00,23.9,17.5,29.98,West,270,17.6,-999.0,76,-99.99,,,0.00,Acu-Link.com,2013-02-21 01:43:00,
2013-02-20 20:58:00,23.9,17.2,29.97,West,270,20.7,-999.0,75,-99.99,,,0.00,Acu-Link.com,2013-02-21 01:58:00,
2013-02-20 21:13:00,24.1,17.0,29.97,SSW,202,11.9,-999.0,74,-99.99,,,0.00,Acu-Link.com,2013-02-21 02:13:00,
2013-02-20 21:28:00,24.1,16.4,29.97,WNW,292,14.0,-999.0,72,-99.99,,,0.00,Acu-Link.com,2013-02-21 02:28:00,
2013-02-20 21:43:00,24.4,17.3,29.98,WNW,292,16.6,-999.0,74,-99.99,,,0.00,Acu-Link.com,2013-02-21 02:43:00,
2013-02-20 21:59:00,24.4,17.0,29.97,West,270,16.6,-999.0,73,-99.99,,,0.00,Acu-Link.com,2013-02-21 02:59:00,
2013-02-20 22:14:00,24.8,17.7,29.97,West,270,18.1,-999.0,74,-99.99,,,0.00,Acu-Link.com,2013-02-21 03:14:00,
2013-02-20 22:29:00,24.4,16.7,29.97,WNW,292,14.0,-999.0,72,-99.99,,,0.00,Acu-Link.com,2013-02-21 03:29:00,
2013-02-20 22:44:00,24.6,15.9,29.96,West,270,16.6,-999.0,69,-99.99,,,0.00,Acu-Link.com,2013-02-21 03:44:00,
2013-02-20 22:59:00,24.8,16.4,29.97,West,270,14.5,-999.0,70,-99.99,,,0.00,Acu-Link.com,2013-02-21 03:59:00,
2013-02-20 23:14:00,24.8,16.1,29.95,WNW,292,18.6,-999.0,69,-99.99,,,0.00,Acu-Link.com,2013-02-21 04:14:00,
2013-02-20 23:29:00,24.8,16.8,29.95,NW,315,17.1,-999.0,71,-99.99,,,0.00,Acu-Link.com,2013-02-21 04:29:00,
2013-02-20 23:45:00,24.6,15.9,29.95,WNW,292,16.1,-999.0,69,-99.99,,,0.00,Acu-Link.com,2013-02-21 04:45:00,